Pagrindinis puslapis
METAR-TAF:

METAR-TAF

Oro uostai :

Mekoryuk, Aliaska, Jungtinės Amerikos Valstijos

platuma: 60-22N, ilguma: 166-16W, Aukštis: 15 m

Dabartinis oras

Ataskaita buvo paskelbta 14 minutes, ne 21:56 UTC
Vėjas 15 kt iš Pietvakarių su gūsio iki 20 kt
Temperatūra 10°C
Drėgmė 82%
Slėgis 993 hPa
Matomumas: 16.1 km
Giedras dangus

METAR: PAMY 212156Z AUTO 23015G20KT 10SM CLR 10/07 A2932 RMK AO2 RAE16 SLP929 P0000 T01000067

Laikas: 14:10 (22:10 UTC)


TAF: trūkstamas

Orai ataskaitas ir orų prognozės (METAR, TAF).

turimą stotys yra geltonos ir raudonos taškus žemėlapyje.

Perkelti pele per norėdami pamatyti stoties vardą.

Tada spustelėkite, norėdami matyti oro stebėjimo ir prognozės.

Norėdami pakeisti žemėlapį: spustelėkite ant žalios mygtukų su juodo kryžiaus žemyn,; žalią mygtuką su brūkšneliu, jei norite nutolinti; arba žalių rodyklių gretimoms žemėlapius.


METAR-TAF: